TimeEST,TemperatureF,Dew PointF,Humidity,Sea Level PressureIn,VisibilityMPH,Wind Direction,Wind SpeedMPH,Gust SpeedMPH,PrecipitationIn,Events,Conditions,WindDirDegrees,DateUTC
12:51 AM,6.1,1.9,83,30.12,-9999.0,North,17.3,-,0.02,,Unknown,350,2014-01-08 05:51:00
1:51 AM,6.1,3.0,87,30.14,-9999.0,North,17.3,25.3,0.01,,Unknown,350,2014-01-08 06:51:00
2:51 AM,7.0,1.9,80,30.16,-9999.0,NNW,11.5,20.7,0.01,,Unknown,330,2014-01-08 07:51:00
3:51 AM,7.0,3.0,84,30.18,-9999.0,NNW,8.1,-,N/A,,Unknown,330,2014-01-08 08:51:00
4:51 AM,8.1,3.9,83,30.19,-9999.0,NW,4.6,-,0.01,,Unknown,310,2014-01-08 09:51:00
5:51 AM,9.0,5.0,84,30.18,-9999.0,North,23.0,27.6,0.01,,Unknown,350,2014-01-08 10:51:00
6:51 AM,10.0,5.0,80,30.19,-9999.0,North,21.9,27.6,0.02,,Unknown,350,2014-01-08 11:51:00
7:51 AM,10.0,3.9,76,30.20,-9999.0,North,19.6,25.3,0.01,,Unknown,350,2014-01-08 12:51:00
8:51 AM,9.0,3.0,77,30.22,-9999.0,NNW,12.7,23.0,0.01,,Unknown,340,2014-01-08 13:51:00
9:51 AM,9.0,3.9,80,30.27,-9999.0,North,19.6,27.6,0.02,,Unknown,350,2014-01-08 14:51:00
10:51 AM,24.1,3.9,42,30.28,-9999.0,NNW,16.1,23.0,0.04,,Unknown,340,2014-01-08 15:51:00
11:51 AM,24.1,3.0,40,30.28,-9999.0,NNW,15.0,24.2,0.02,,Unknown,340,2014-01-08 16:51:00
12:51 PM,23.0,3.9,44,30.27,-9999.0,NNW,13.8,24.2,0.09,,Unknown,340,2014-01-08 17:51:00
1:51 PM,21.9,3.0,44,30.28,-9999.0,NNW,13.8,23.0,0.09,,Unknown,340,2014-01-08 18:51:00
2:51 PM,21.9,5.0,48,30.28,-9999.0,NW,10.4,25.3,0.14,,Unknown,320,2014-01-08 19:51:00
3:51 PM,21.9,5.0,48,30.29,-9999.0,NNW,11.5,16.1,0.03,,Unknown,330,2014-01-08 20:51:00
4:51 PM,24.1,3.9,42,30.32,-9999.0,NNW,13.8,26.5,0.09,,Unknown,340,2014-01-08 21:51:00
5:51 PM,21.0,3.0,46,30.34,-9999.0,NNW,16.1,23.0,N/A,,Unknown,340,2014-01-08 22:51:00
6:51 PM,19.9,5.0,52,30.35,-9999.0,NNW,9.2,19.6,0.01,,Unknown,330,2014-01-08 23:51:00
7:51 PM,28.9,6.1,38,30.37,-9999.0,North,17.3,-,0.02,,Unknown,350,2014-01-09 00:51:00
8:51 PM,28.9,7.0,40,30.39,-9999.0,North,17.3,-,N/A,,Unknown,360,2014-01-09 01:51:00
9:51 PM,28.0,6.1,39,30.41,-9999.0,North,15.0,-,0.02,,Unknown,360,2014-01-09 02:51:00
10:51 PM,19.0,6.1,57,30.41,-9999.0,NW,3.5,-,0.01,,Unknown,320,2014-01-09 03:51:00
11:51 PM,17.1,5.0,59,30.42,-9999.0,Calm,Calm,-,N/A,,Unknown,0,2014-01-09 04:51:00